createdAt,value
2022-10-31T00:00:19.229Z,0
2022-10-31T00:01:18.756Z,0
2022-10-31T00:02:19.222Z,0
2022-10-31T00:03:18.747Z,0
2022-10-31T00:04:21.494Z,0
2022-10-31T00:05:18.804Z,0
2022-10-31T00:06:18.740Z,0
2022-10-31T00:07:18.748Z,0
2022-10-31T00:08:18.825Z,0
2022-10-31T00:09:19.015Z,0
2022-10-31T00:10:21.560Z,0
2022-10-31T00:11:18.750Z,0
2022-10-31T00:12:18.756Z,0
2022-10-31T00:13:20.208Z,0
2022-10-31T00:14:18.758Z,0
2022-10-31T00:15:21.684Z,0
2022-10-31T00:16:18.772Z,0
2022-10-31T00:17:18.800Z,0
2022-10-31T00:18:18.761Z,0
2022-10-31T00:19:18.796Z,0
2022-10-31T00:20:18.781Z,0
2022-10-31T00:21:21.854Z,0
2022-10-31T00:22:18.779Z,0
2022-10-31T00:23:18.811Z,0
2022-10-31T00:24:18.764Z,0
2022-10-31T00:25:18.831Z,0
2022-10-31T00:26:19.934Z,0
2022-10-31T00:27:22.780Z,0
2022-10-31T00:29:18.861Z,0
2022-10-31T00:30:18.860Z,0
2022-10-31T00:31:18.869Z,0
2022-10-31T00:32:21.774Z,0
2022-10-31T00:33:18.847Z,0
2022-10-31T00:34:18.795Z,0
2022-10-31T00:35:18.831Z,0
2022-10-31T00:36:18.800Z,0
2022-10-31T00:37:21.622Z,0
2022-10-31T00:38:18.802Z,0
2022-10-31T00:39:18.822Z,0
2022-10-31T00:40:18.819Z,0
2022-10-31T00:41:21.675Z,0
2022-10-31T00:42:18.822Z,0
2022-10-31T00:43:21.827Z,0
2022-10-31T00:44:18.806Z,0
2022-10-31T00:45:18.989Z,0
2022-10-31T00:46:19.022Z,0
2022-10-31T00:47:21.606Z,0
2022-10-31T00:48:21.651Z,0
2022-10-31T00:49:18.836Z,0
2022-10-31T00:50:18.835Z,0
2022-10-31T00:51:19.051Z,0
2022-10-31T00:52:18.834Z,0
2022-10-31T00:53:18.810Z,0
2022-10-31T00:54:18.808Z,0
2022-10-31T00:55:18.853Z,0
2022-10-31T00:56:18.816Z,0
2022-10-31T00:57:18.663Z,0
2022-10-31T00:58:19.091Z,0
2022-10-31T00:59:18.821Z,0
2022-10-31T01:00:18.860Z,0
2022-10-31T01:01:19.475Z,0
2022-10-31T01:02:19.510Z,0
2022-10-31T01:03:18.842Z,0
2022-10-31T01:04:18.847Z,0
2022-10-31T01:05:18.895Z,0
2022-10-31T01:06:18.849Z,0
2022-10-31T01:07:18.849Z,0
2022-10-31T01:08:21.304Z,0
2022-10-31T01:09:18.869Z,0
2022-10-31T01:10:18.916Z,0
2022-10-31T01:11:18.903Z,0
2022-10-31T01:12:18.843Z,0
2022-10-31T01:13:19.202Z,0
2022-10-31T01:14:18.850Z,0
2022-10-31T01:15:18.882Z,0
2022-10-31T01:16:18.854Z,0
2022-10-31T01:17:18.958Z,0
2022-10-31T01:18:18.853Z,0
2022-10-31T01:19:18.890Z,0
2022-10-31T01:20:18.880Z,0
2022-10-31T01:21:18.870Z,0
2022-10-31T01:22:18.883Z,0
2022-10-31T01:23:18.865Z,0
2022-10-31T01:24:18.901Z,0
2022-10-31T01:25:18.893Z,0
2022-10-31T01:26:19.088Z,0
2022-10-31T01:27:18.871Z,0
2022-10-31T01:28:19.240Z,0
2022-10-31T01:29:18.878Z,0
2022-10-31T01:30:18.902Z,0
2022-10-31T01:31:21.872Z,0
2022-10-31T01:32:18.898Z,0
2022-10-31T01:33:18.962Z,0
2022-10-31T01:34:18.877Z,0
2022-10-31T01:35:18.923Z,0
2022-10-31T01:36:18.906Z,0
2022-10-31T01:37:18.930Z,0
2022-10-31T01:38:18.900Z,0
2022-10-31T01:39:18.902Z,0
2022-10-31T01:40:18.935Z,0
2022-10-31T01:41:18.914Z,0
2022-10-31T01:42:22.028Z,0
2022-10-31T01:43:19.108Z,0
2022-10-31T01:44:18.884Z,0
2022-10-31T01:45:18.998Z,0
2022-10-31T01:46:18.926Z,0
2022-10-31T01:47:18.970Z,0
2022-10-31T01:48:18.909Z,0
2022-10-31T01:49:18.993Z,0
2022-10-31T01:50:18.939Z,0
2022-10-31T01:51:18.905Z,0
2022-10-31T01:52:18.914Z,0
2022-10-31T01:53:28.166Z,0
2022-10-31T01:54:18.935Z,0
2022-10-31T01:55:18.946Z,0
2022-10-31T01:56:18.937Z,0
2022-10-31T01:57:18.951Z,0
2022-10-31T01:58:22.059Z,0
2022-10-31T01:59:18.925Z,0
2022-10-31T02:00:18.993Z,0
2022-10-31T02:01:19.594Z,0
2022-10-31T02:02:19.922Z,0
2022-10-31T02:03:18.944Z,0
2022-10-31T02:04:21.807Z,0
2022-10-31T02:05:19.044Z,0
2022-10-31T02:06:18.931Z,0
2022-10-31T02:07:18.958Z,0
2022-10-31T02:08:18.991Z,0
2022-10-31T02:09:25.974Z,0
2022-10-31T02:10:18.961Z,0
2022-10-31T02:11:18.938Z,0
2022-10-31T02:12:18.944Z,0
2022-10-31T02:13:19.364Z,0
2022-10-31T02:14:18.960Z,0
2022-10-31T02:15:19.645Z,0
2022-10-31T02:16:18.955Z,0
2022-10-31T02:17:18.972Z,0
2022-10-31T02:18:18.958Z,0
2022-10-31T02:19:18.973Z,0
2022-10-31T02:20:22.179Z,0
2022-10-31T02:21:19.004Z,0
2022-10-31T02:22:18.960Z,0
2022-10-31T02:23:18.990Z,0
2022-10-31T02:24:19.007Z,0
2022-10-31T02:25:19.053Z,0
2022-10-31T02:26:21.974Z,0
2022-10-31T02:27:18.971Z,0
2022-10-31T02:29:18.994Z,0
2022-10-31T02:30:18.973Z,0
2022-10-31T02:31:22.086Z,0
2022-10-31T02:32:19.047Z,0
2022-10-31T02:33:19.074Z,0
2022-10-31T02:34:18.987Z,0
2022-10-31T02:35:19.008Z,0
2022-10-31T02:36:19.083Z,0
2022-10-31T02:37:21.765Z,0
2022-10-31T02:38:19.029Z,0
2022-10-31T02:39:18.989Z,0
2022-10-31T02:40:18.998Z,0
2022-10-31T02:41:19.018Z,0
2022-10-31T02:42:22.021Z,0
2022-10-31T02:43:19.014Z,0
2022-10-31T02:44:19.033Z,0
2022-10-31T02:45:19.027Z,0
2022-10-31T02:46:19.137Z,0
2022-10-31T02:47:19.015Z,0
2022-10-31T02:48:21.957Z,0
2022-10-31T02:49:19.005Z,0
2022-10-31T02:50:19.016Z,0
2022-10-31T02:51:19.027Z,0
2022-10-31T02:52:19.093Z,0
2022-10-31T02:53:20.109Z,0
2022-10-31T02:54:19.035Z,0
2022-10-31T02:55:19.013Z,0
2022-10-31T02:56:19.028Z,0
2022-10-31T02:57:19.095Z,0
2022-10-31T02:59:22.142Z,0
2022-10-31T03:00:19.045Z,0
2022-10-31T03:01:19.620Z,0
2022-10-31T03:02:19.999Z,0
2022-10-31T03:03:19.027Z,0
2022-10-31T03:04:21.909Z,0
2022-10-31T03:05:19.066Z,0
2022-10-31T03:06:19.099Z,0
2022-10-31T03:07:19.040Z,0
2022-10-31T03:08:19.178Z,0
2022-10-31T03:09:19.048Z,0
2022-10-31T03:10:22.087Z,0
2022-10-31T03:11:19.046Z,0
2022-10-31T03:12:19.106Z,0
2022-10-31T03:13:19.509Z,0
2022-10-31T03:14:19.136Z,0
2022-10-31T03:15:22.106Z,0
2022-10-31T03:16:19.132Z,0
2022-10-31T03:17:19.061Z,0
2022-10-31T03:18:19.065Z,0
2022-10-31T03:19:19.053Z,0
2022-10-31T03:20:19.061Z,0
2022-10-31T03:21:19.069Z,0
2022-10-31T03:22:19.081Z,0
2022-10-31T03:23:19.091Z,0
2022-10-31T03:24:19.148Z,0
2022-10-31T03:25:19.079Z,0
2022-10-31T03:26:19.095Z,0
2022-10-31T03:27:19.081Z,0
2022-10-31T03:29:19.103Z,0
2022-10-31T03:30:19.069Z,0
2022-10-31T03:31:19.092Z,0
2022-10-31T03:32:19.075Z,0
2022-10-31T03:33:19.088Z,0
2022-10-31T03:34:19.080Z,0
2022-10-31T03:35:19.099Z,0
2022-10-31T03:36:19.111Z,0
2022-10-31T03:37:19.103Z,0
2022-10-31T03:38:19.086Z,0
2022-10-31T03:39:19.079Z,0
2022-10-31T03:40:19.214Z,0
2022-10-31T03:41:19.101Z,0
2022-10-31T03:42:19.103Z,0
2022-10-31T03:43:19.416Z,0
2022-10-31T03:44:19.103Z,0
2022-10-31T03:45:19.145Z,0
2022-10-31T03:46:19.172Z,0
2022-10-31T03:47:19.118Z,0
2022-10-31T03:48:19.085Z,0
2022-10-31T03:49:19.124Z,0
2022-10-31T03:50:19.114Z,0
2022-10-31T03:51:19.125Z,0
2022-10-31T03:52:19.139Z,0
2022-10-31T03:53:19.099Z,0
2022-10-31T03:54:19.140Z,0
2022-10-31T03:55:19.139Z,0
2022-10-31T03:56:19.224Z,0
2022-10-31T03:57:19.110Z,0
2022-10-31T03:59:19.123Z,0
2022-10-31T04:00:19.133Z,0
2022-10-31T04:01:19.867Z,0
2022-10-31T04:02:20.039Z,0
2022-10-31T04:03:19.219Z,0
2022-10-31T04:04:19.132Z,0
2022-10-31T04:05:19.171Z,0
2022-10-31T04:06:19.209Z,0
2022-10-31T04:07:19.128Z,0
2022-10-31T04:08:19.136Z,0
2022-10-31T04:09:22.000Z,0
2022-10-31T04:10:19.133Z,0
2022-10-31T04:11:19.177Z,0
2022-10-31T04:12:19.221Z,0
2022-10-31T04:14:19.159Z,0
2022-10-31T04:15:19.152Z,0
2022-10-31T04:16:24.054Z,0
2022-10-31T04:17:19.173Z,0
2022-10-31T04:18:19.334Z,0
2022-10-31T04:19:19.170Z,0
2022-10-31T04:20:22.287Z,0
2022-10-31T04:21:19.192Z,0
2022-10-31T04:22:19.171Z,0
2022-10-31T04:23:21.633Z,0
2022-10-31T04:24:19.241Z,0
2022-10-31T04:25:22.256Z,0
2022-10-31T04:26:19.052Z,0
2022-10-31T04:27:19.161Z,0
2022-10-31T04:29:19.186Z,0
2022-10-31T04:30:19.167Z,0
2022-10-31T04:31:22.284Z,0
2022-10-31T04:32:19.197Z,0
2022-10-31T04:33:19.198Z,0
2022-10-31T04:34:19.170Z,0
2022-10-31T04:35:19.162Z,0
2022-10-31T04:36:20.508Z,0
2022-10-31T04:37:19.180Z,0
2022-10-31T04:38:19.189Z,0
2022-10-31T04:39:21.480Z,0
2022-10-31T04:40:19.397Z,0
2022-10-31T04:41:19.216Z,0
2022-10-31T04:42:21.940Z,0
2022-10-31T04:44:19.291Z,0
2022-10-31T04:45:26.012Z,0
2022-10-31T04:46:19.259Z,0
2022-10-31T04:47:22.207Z,0
2022-10-31T04:48:19.253Z,0
2022-10-31T04:49:19.235Z,0
2022-10-31T04:50:19.212Z,0
2022-10-31T04:51:19.246Z,0
2022-10-31T04:52:19.194Z,0
2022-10-31T04:53:22.102Z,0
2022-10-31T04:54:19.208Z,0
2022-10-31T04:55:19.236Z,0
2022-10-31T04:56:19.248Z,0
2022-10-31T04:57:20.319Z,0
2022-10-31T04:58:25.022Z,0
2022-10-31T04:59:19.224Z,0
2022-10-31T05:00:19.301Z,0
2022-10-31T05:01:20.124Z,0
2022-10-31T05:02:19.855Z,0
2022-10-31T05:03:19.221Z,0
2022-10-31T05:04:22.024Z,0
2022-10-31T05:05:19.316Z,0
2022-10-31T05:06:19.262Z,0
2022-10-31T05:07:22.178Z,0
2022-10-31T05:08:19.253Z,0
2022-10-31T05:09:22.246Z,0
2022-10-31T05:10:19.257Z,0
2022-10-31T05:11:19.285Z,0
2022-10-31T05:12:19.248Z,0
2022-10-31T05:14:19.259Z,0
2022-10-31T05:15:22.053Z,0
2022-10-31T05:16:19.356Z,0
2022-10-31T05:17:19.252Z,0
2022-10-31T05:18:19.262Z,0
2022-10-31T05:19:19.250Z,0
2022-10-31T05:20:22.072Z,0
2022-10-31T05:21:19.381Z,0
2022-10-31T05:22:19.256Z,0
2022-10-31T05:23:19.250Z,0
2022-10-31T05:24:19.273Z,0
2022-10-31T05:25:19.288Z,0
2022-10-31T05:26:22.270Z,0
2022-10-31T05:27:19.264Z,0
2022-10-31T05:28:19.302Z,0
2022-10-31T05:29:19.257Z,0
2022-10-31T05:30:23.092Z,0
2022-10-31T05:31:22.114Z,0
2022-10-31T05:32:19.315Z,0
2022-10-31T05:33:19.302Z,0
2022-10-31T05:34:19.272Z,0
2022-10-31T05:35:19.300Z,0
2022-10-31T05:36:19.304Z,0
2022-10-31T05:37:22.120Z,0
2022-10-31T05:38:22.299Z,0
2022-10-31T05:39:19.283Z,0
2022-10-31T05:40:19.379Z,0
2022-10-31T05:41:19.313Z,0
2022-10-31T05:42:22.130Z,4
2022-10-31T05:43:19.295Z,0
2022-10-31T05:44:19.307Z,0
2022-10-31T05:45:19.294Z,0
2022-10-31T05:46:19.387Z,0
2022-10-31T05:47:19.429Z,0
2022-10-31T05:48:19.331Z,4
2022-10-31T05:49:19.296Z,0
2022-10-31T05:50:19.330Z,4
2022-10-31T05:51:19.316Z,4
2022-10-31T05:52:19.382Z,0
2022-10-31T05:53:19.338Z,4
2022-10-31T05:54:22.831Z,4
2022-10-31T05:55:19.332Z,8
2022-10-31T05:56:19.387Z,4
2022-10-31T05:57:19.322Z,4
2022-10-31T05:58:19.308Z,8
2022-10-31T05:59:19.329Z,12
2022-10-31T06:00:19.324Z,8
2022-10-31T06:01:19.692Z,12
2022-10-31T06:02:19.397Z,12
2022-10-31T06:03:19.395Z,16
2022-10-31T06:04:19.782Z,12
2022-10-31T06:05:19.549Z,16
2022-10-31T06:06:19.358Z,16
2022-10-31T06:07:19.373Z,16
2022-10-31T06:08:19.558Z,24
2022-10-31T06:09:22.438Z,24
2022-10-31T06:10:19.339Z,24
2022-10-31T06:11:19.345Z,24
2022-10-31T06:12:19.189Z,28
2022-10-31T06:13:19.340Z,28
2022-10-31T06:14:19.349Z,28
2022-10-31T06:15:29.487Z,32
2022-10-31T06:16:19.345Z,36
2022-10-31T06:17:19.415Z,36
2022-10-31T06:18:19.335Z,40
2022-10-31T06:19:19.414Z,44
2022-10-31T06:20:19.400Z,44
2022-10-31T06:21:23.925Z,44
2022-10-31T06:22:19.372Z,44
2022-10-31T06:23:19.374Z,52
2022-10-31T06:24:19.381Z,52
2022-10-31T06:25:22.408Z,56
2022-10-31T06:26:19.374Z,60
2022-10-31T06:27:19.462Z,60
2022-10-31T06:28:19.369Z,64
2022-10-31T06:29:19.465Z,64
2022-10-31T06:30:19.371Z,72
2022-10-31T06:31:19.395Z,72
2022-10-31T06:32:19.407Z,72
2022-10-31T06:33:19.378Z,72
2022-10-31T06:34:19.374Z,72
2022-10-31T06:35:20.436Z,76
2022-10-31T06:37:19.433Z,88
2022-10-31T06:38:19.400Z,88
2022-10-31T06:39:19.434Z,88
2022-10-31T06:40:19.410Z,88
2022-10-31T06:41:19.455Z,88
2022-10-31T06:42:19.409Z,92
2022-10-31T06:43:19.400Z,100
2022-10-31T06:44:19.408Z,104
2022-10-31T06:45:19.403Z,112
2022-10-31T06:46:19.410Z,112
2022-10-31T06:47:22.463Z,116
2022-10-31T06:48:25.754Z,120
2022-10-31T06:49:19.391Z,124
2022-10-31T06:50:19.387Z,136
2022-10-31T06:51:19.471Z,140
2022-10-31T06:52:20.623Z,140
2022-10-31T06:53:19.829Z,148
2022-10-31T06:54:19.406Z,148
2022-10-31T06:55:19.403Z,140
2022-10-31T06:56:19.428Z,132
2022-10-31T06:57:19.474Z,140
2022-10-31T06:58:22.363Z,144
2022-10-31T06:59:19.461Z,164
2022-10-31T07:00:19.441Z,180
2022-10-31T07:01:20.306Z,188
2022-10-31T07:02:20.479Z,212
2022-10-31T07:03:20.568Z,228
2022-10-31T07:04:19.429Z,236
2022-10-31T07:05:19.454Z,216
2022-10-31T07:06:19.422Z,208
2022-10-31T07:07:19.650Z,244
2022-10-31T07:08:19.462Z,256
2022-10-31T07:09:22.511Z,272
2022-10-31T07:10:19.481Z,256
2022-10-31T07:11:19.417Z,256
2022-10-31T07:12:19.301Z,272
2022-10-31T07:13:19.458Z,288
2022-10-31T07:14:22.279Z,296
2022-10-31T07:15:19.506Z,312
2022-10-31T07:16:19.469Z,304
2022-10-31T07:17:19.327Z,316
2022-10-31T07:18:19.581Z,340
2022-10-31T07:19:19.460Z,328
2022-10-31T07:20:25.413Z,344
2022-10-31T07:21:19.438Z,352
2022-10-31T07:22:19.489Z,384
2022-10-31T07:23:19.519Z,376
2022-10-31T07:24:19.476Z,388
2022-10-31T07:25:22.484Z,400
2022-10-31T07:26:19.474Z,456
2022-10-31T07:27:19.479Z,392
2022-10-31T07:28:20.535Z,348
2022-10-31T07:29:19.531Z,316
2022-10-31T07:30:19.777Z,320
2022-10-31T07:31:20.630Z,308
2022-10-31T07:32:20.549Z,312
2022-10-31T07:33:19.466Z,316
2022-10-31T07:34:19.505Z,320
2022-10-31T07:35:19.466Z,332
2022-10-31T07:36:22.280Z,364
2022-10-31T07:37:19.474Z,496
2022-10-31T07:38:19.678Z,508
2022-10-31T07:39:19.529Z,464
2022-10-31T07:40:19.535Z,376
2022-10-31T07:41:19.509Z,364
2022-10-31T07:42:22.630Z,436
2022-10-31T07:43:21.524Z,524
2022-10-31T07:44:19.492Z,548
2022-10-31T07:45:19.512Z,564
2022-10-31T07:46:19.500Z,468
2022-10-31T07:47:22.643Z,536
2022-10-31T07:48:19.548Z,668
2022-10-31T07:49:19.500Z,692
2022-10-31T07:50:19.520Z,696
2022-10-31T07:51:19.687Z,724
2022-10-31T07:52:19.531Z,620
2022-10-31T07:53:22.345Z,568
2022-10-31T07:54:19.509Z,536
2022-10-31T07:55:19.705Z,528
2022-10-31T07:56:19.379Z,516
2022-10-31T07:57:29.481Z,576
2022-10-31T07:58:22.715Z,532
2022-10-31T07:59:19.504Z,680
2022-10-31T08:00:19.525Z,736
2022-10-31T08:01:19.596Z,684
2022-10-31T08:02:19.556Z,596
2022-10-31T08:03:19.561Z,556
2022-10-31T08:04:19.537Z,480
2022-10-31T08:05:19.544Z,548
2022-10-31T08:06:19.647Z,508
2022-10-31T08:07:19.607Z,464
2022-10-31T08:08:19.783Z,444
2022-10-31T08:09:22.333Z,444
2022-10-31T08:10:19.569Z,464
2022-10-31T08:11:19.609Z,456
2022-10-31T08:12:19.566Z,468
2022-10-31T08:13:19.567Z,476
2022-10-31T08:14:19.823Z,564
2022-10-31T08:15:19.541Z,628
2022-10-31T08:16:19.560Z,624
2022-10-31T08:17:19.571Z,556
2022-10-31T08:18:19.775Z,516
2022-10-31T08:19:19.556Z,516
2022-10-31T08:20:19.581Z,516
2022-10-31T08:21:19.549Z,532
2022-10-31T08:22:19.569Z,552
2022-10-31T08:23:19.680Z,604
2022-10-31T08:24:19.574Z,640
2022-10-31T08:25:19.600Z,592
2022-10-31T08:26:19.549Z,588
2022-10-31T08:27:19.612Z,604
2022-10-31T08:28:19.671Z,620
2022-10-31T08:29:19.563Z,604
2022-10-31T08:30:19.424Z,620
2022-10-31T08:31:19.591Z,588
2022-10-31T08:32:19.564Z,516
2022-10-31T08:33:19.667Z,476
2022-10-31T08:34:19.577Z,472
2022-10-31T08:35:19.730Z,472
2022-10-31T08:36:23.737Z,452
2022-10-31T08:37:19.577Z,432
2022-10-31T08:38:19.653Z,424
2022-10-31T08:39:19.612Z,424
2022-10-31T08:40:19.606Z,432
2022-10-31T08:41:19.600Z,436
2022-10-31T08:42:19.624Z,444
2022-10-31T08:43:19.728Z,440
2022-10-31T08:44:19.636Z,444
2022-10-31T08:45:19.591Z,460
2022-10-31T08:46:19.624Z,480
2022-10-31T08:47:19.603Z,504
2022-10-31T08:48:19.654Z,528
2022-10-31T08:49:19.624Z,548
2022-10-31T08:50:19.607Z,592
2022-10-31T08:51:19.603Z,636
2022-10-31T08:53:03.971Z,592
2022-10-31T08:53:19.622Z,596
2022-10-31T08:54:19.605Z,636
2022-10-31T08:55:19.611Z,608
2022-10-31T08:56:19.638Z,684
2022-10-31T08:57:22.646Z,648
2022-10-31T08:58:19.702Z,632
2022-10-31T08:59:19.655Z,728
2022-10-31T09:00:19.642Z,856
2022-10-31T09:01:20.360Z,832
2022-10-31T09:02:20.006Z,724
2022-10-31T09:03:23.703Z,792
2022-10-31T09:04:19.627Z,1124
2022-10-31T09:05:19.659Z,1020
2022-10-31T09:06:23.187Z,956
2022-10-31T09:07:27.405Z,1180
2022-10-31T09:08:23.248Z,1132
2022-10-31T09:09:19.480Z,876
2022-10-31T09:10:19.657Z,1284
2022-10-31T09:11:19.669Z,1052
2022-10-31T09:12:19.688Z,1240
2022-10-31T09:13:19.663Z,1064
2022-10-31T09:14:22.795Z,1492
2022-10-31T09:15:19.677Z,1392
2022-10-31T09:16:25.872Z,1400
2022-10-31T09:17:19.671Z,1216
2022-10-31T09:18:19.726Z,1076
2022-10-31T09:19:22.803Z,928
2022-10-31T09:20:25.686Z,856
2022-10-31T09:21:19.749Z,860
2022-10-31T09:22:19.641Z,876
2022-10-31T09:23:19.660Z,928
2022-10-31T09:24:19.669Z,1160
2022-10-31T09:25:22.689Z,896
2022-10-31T09:26:19.662Z,800
2022-10-31T09:27:19.661Z,788
2022-10-31T09:28:19.715Z,736
2022-10-31T09:29:19.741Z,724
2022-10-31T09:30:22.936Z,768
2022-10-31T09:31:19.516Z,848
2022-10-31T09:32:19.713Z,928
2022-10-31T09:33:22.837Z,996
2022-10-31T09:34:19.826Z,1232
2022-10-31T09:35:27.019Z,1204
2022-10-31T09:36:22.796Z,1048
2022-10-31T09:37:19.721Z,1064
2022-10-31T09:38:19.815Z,960
2022-10-31T09:39:19.685Z,888
2022-10-31T09:40:19.682Z,1272
2022-10-31T09:41:22.787Z,1560
2022-10-31T09:42:19.724Z,1492
2022-10-31T09:43:19.538Z,1632
2022-10-31T09:44:19.717Z,1724
2022-10-31T09:45:19.745Z,1512
2022-10-31T09:46:19.773Z,1716
2022-10-31T09:47:25.232Z,1696
2022-10-31T09:48:20.417Z,1712
2022-10-31T09:49:22.315Z,1672
2022-10-31T09:50:19.776Z,1660
2022-10-31T09:51:19.765Z,1564
2022-10-31T09:52:22.557Z,1624
2022-10-31T09:53:19.584Z,1668
2022-10-31T09:54:19.805Z,1684
2022-10-31T09:55:19.707Z,1484
2022-10-31T09:56:19.731Z,1588
2022-10-31T09:57:19.719Z,1700
2022-10-31T09:58:22.630Z,1624
2022-10-31T09:59:19.792Z,1636
2022-10-31T10:00:19.789Z,1676
2022-10-31T10:01:20.551Z,1688
2022-10-31T10:02:20.133Z,1624
2022-10-31T10:03:22.681Z,1660
2022-10-31T10:05:19.846Z,1644
2022-10-31T10:06:19.727Z,1592
2022-10-31T10:07:19.741Z,1560
2022-10-31T10:08:19.754Z,1448
2022-10-31T10:09:22.956Z,1444
2022-10-31T10:10:19.739Z,1480
2022-10-31T10:11:19.736Z,1508
2022-10-31T10:12:19.742Z,1500
2022-10-31T10:13:20.202Z,1284
2022-10-31T10:14:22.817Z,1476
2022-10-31T10:15:19.745Z,1472
2022-10-31T10:16:19.746Z,1464
2022-10-31T10:17:19.745Z,1444
2022-10-31T10:18:19.796Z,1428
2022-10-31T10:19:19.791Z,1420
2022-10-31T10:20:23.944Z,1432
2022-10-31T10:21:19.755Z,1424
2022-10-31T10:22:19.756Z,1420
2022-10-31T10:23:20.186Z,1480
2022-10-31T10:24:19.868Z,1460
2022-10-31T10:25:25.868Z,1420
2022-10-31T10:26:20.001Z,1396
2022-10-31T10:27:25.766Z,1412
2022-10-31T10:28:19.813Z,1316
2022-10-31T10:29:19.793Z,1316
2022-10-31T10:30:19.873Z,1284
2022-10-31T10:31:22.978Z,1292
2022-10-31T10:32:19.824Z,1176
2022-10-31T10:33:19.783Z,1264
2022-10-31T10:34:19.917Z,1324
2022-10-31T10:35:19.828Z,1332
2022-10-31T10:36:22.705Z,1276
2022-10-31T10:37:19.806Z,1248
2022-10-31T10:38:19.786Z,1256
2022-10-31T10:39:19.823Z,1184
2022-10-31T10:40:20.011Z,1236
2022-10-31T10:41:22.844Z,1128
2022-10-31T10:42:19.880Z,1244
2022-10-31T10:43:19.821Z,1208
2022-10-31T10:44:19.824Z,1144
2022-10-31T10:45:20.017Z,1076
2022-10-31T10:46:19.324Z,1024
2022-10-31T10:47:19.827Z,1052
2022-10-31T10:48:19.823Z,1040
2022-10-31T10:49:19.691Z,1032
2022-10-31T10:50:19.929Z,988
2022-10-31T10:53:01.170Z,968
2022-10-31T10:54:10.496Z,968
2022-10-31T10:55:01.116Z,884
2022-10-31T10:56:04.197Z,904
2022-10-31T10:57:01.087Z,876
2022-10-31T10:58:01.995Z,840
2022-10-31T10:59:01.098Z,716
2022-10-31T11:00:01.171Z,700
2022-10-31T11:01:01.766Z,708
2022-10-31T11:02:06.378Z,712
2022-10-31T11:03:01.535Z,688
2022-10-31T11:04:01.109Z,672
2022-10-31T11:05:01.124Z,688
2022-10-31T11:06:01.185Z,656
2022-10-31T11:07:04.196Z,672
2022-10-31T11:08:01.108Z,672
2022-10-31T11:09:01.118Z,644
2022-10-31T11:10:01.159Z,668
2022-10-31T11:11:01.109Z,696
2022-10-31T11:12:01.167Z,704
2022-10-31T11:13:06.333Z,672
2022-10-31T11:14:01.127Z,656
2022-10-31T11:15:01.297Z,668
2022-10-31T11:16:01.378Z,648
2022-10-31T11:17:01.336Z,680
2022-10-31T11:18:03.878Z,600
2022-10-31T11:19:01.177Z,604
2022-10-31T11:20:01.171Z,600
2022-10-31T11:21:01.506Z,596
2022-10-31T11:22:01.479Z,620
2022-10-31T11:23:01.582Z,640
2022-10-31T11:24:01.156Z,664
2022-10-31T11:25:01.161Z,652
2022-10-31T11:26:01.176Z,648
2022-10-31T11:27:01.157Z,648
2022-10-31T11:28:01.178Z,620
2022-10-31T11:29:04.018Z,640
2022-10-31T11:30:07.333Z,592
2022-10-31T11:31:01.169Z,616
2022-10-31T11:32:01.205Z,588
2022-10-31T11:33:02.199Z,568
2022-10-31T11:34:03.967Z,556
2022-10-31T11:35:01.180Z,568
2022-10-31T11:36:04.846Z,584
2022-10-31T11:37:01.191Z,572
2022-10-31T11:38:02.637Z,580
2022-10-31T11:39:01.174Z,572
2022-10-31T11:40:01.240Z,572
2022-10-31T11:41:01.208Z,572
2022-10-31T11:42:08.871Z,544
2022-10-31T11:43:01.195Z,584
2022-10-31T11:44:01.413Z,576
2022-10-31T11:45:01.216Z,584
2022-10-31T11:46:01.191Z,576
2022-10-31T11:47:01.221Z,604
2022-10-31T11:48:07.600Z,608
2022-10-31T11:49:01.200Z,604
2022-10-31T11:50:01.226Z,564
2022-10-31T11:51:01.192Z,576
2022-10-31T11:52:01.213Z,604
2022-10-31T11:53:01.277Z,596
2022-10-31T11:54:07.887Z,580
2022-10-31T11:55:01.280Z,584
2022-10-31T11:56:04.020Z,568
2022-10-31T11:57:01.235Z,544
2022-10-31T11:58:02.023Z,544
2022-10-31T11:59:01.203Z,540
2022-10-31T12:00:01.284Z,580
2022-10-31T12:01:04.220Z,560
2022-10-31T12:02:02.089Z,556
2022-10-31T12:03:02.262Z,544
2022-10-31T12:04:01.261Z,552
2022-10-31T12:05:01.327Z,520
2022-10-31T12:06:01.303Z,524
2022-10-31T12:07:04.339Z,520
2022-10-31T12:08:08.046Z,520
2022-10-31T12:09:01.214Z,520
2022-10-31T12:10:01.339Z,512
2022-10-31T12:11:01.238Z,504
2022-10-31T12:12:04.043Z,512
2022-10-31T12:13:02.226Z,476
2022-10-31T12:14:07.228Z,516
2022-10-31T12:15:01.307Z,496
2022-10-31T12:16:01.267Z,508
2022-10-31T12:17:01.287Z,504
2022-10-31T12:18:04.409Z,500
2022-10-31T12:19:01.555Z,496
2022-10-31T12:20:03.120Z,500
2022-10-31T12:21:01.275Z,476
2022-10-31T12:22:01.271Z,484
2022-10-31T12:23:05.326Z,484
2022-10-31T12:24:01.269Z,480
2022-10-31T12:25:01.648Z,460
2022-10-31T12:26:01.320Z,468
2022-10-31T12:27:01.329Z,464
2022-10-31T12:28:01.256Z,460
2022-10-31T12:29:05.315Z,472
2022-10-31T12:30:01.336Z,468
2022-10-31T12:31:01.286Z,464
2022-10-31T12:32:01.287Z,476
2022-10-31T12:33:02.005Z,472
2022-10-31T12:34:04.458Z,452
2022-10-31T12:35:01.283Z,444
2022-10-31T12:36:01.299Z,440
2022-10-31T12:37:01.295Z,420
2022-10-31T12:38:02.139Z,432
2022-10-31T12:39:01.338Z,420
2022-10-31T12:40:01.290Z,432
2022-10-31T12:41:01.330Z,428
2022-10-31T12:42:01.370Z,428
2022-10-31T12:43:02.038Z,436
2022-10-31T12:44:01.753Z,420
2022-10-31T12:45:04.614Z,408
2022-10-31T12:46:01.312Z,412
2022-10-31T12:47:01.325Z,408
2022-10-31T12:48:01.340Z,400
2022-10-31T12:49:04.170Z,392
2022-10-31T12:50:01.372Z,396
2022-10-31T12:51:01.363Z,396
2022-10-31T12:52:01.294Z,384
2022-10-31T12:53:02.092Z,376
2022-10-31T12:54:01.341Z,376
2022-10-31T12:55:01.337Z,384
2022-10-31T12:56:02.407Z,364
2022-10-31T12:57:01.318Z,364
2022-10-31T12:58:02.346Z,360
2022-10-31T12:59:01.331Z,348
2022-10-31T13:00:01.478Z,344
2022-10-31T13:01:04.326Z,344
2022-10-31T13:02:02.150Z,344
2022-10-31T13:03:01.436Z,340
2022-10-31T13:04:01.407Z,340
2022-10-31T13:05:01.364Z,332
2022-10-31T13:06:01.369Z,328
2022-10-31T13:07:04.112Z,320
2022-10-31T13:08:02.141Z,320
2022-10-31T13:09:01.343Z,316
2022-10-31T13:10:01.380Z,312
2022-10-31T13:12:04.340Z,304
2022-10-31T13:13:09.258Z,300
2022-10-31T13:14:01.381Z,296
2022-10-31T13:15:01.678Z,288
2022-10-31T13:16:01.595Z,284
2022-10-31T13:17:01.931Z,280
2022-10-31T13:18:04.284Z,276
2022-10-31T13:19:01.363Z,272
2022-10-31T13:20:01.436Z,268
2022-10-31T13:21:02.699Z,260
2022-10-31T13:22:01.418Z,256
2022-10-31T13:23:23.728Z,256
2022-10-31T13:24:01.376Z,252
2022-10-31T13:25:01.703Z,248
2022-10-31T13:26:01.639Z,248
2022-10-31T13:27:01.408Z,244
2022-10-31T13:28:01.369Z,240
2022-10-31T13:29:04.550Z,240
2022-10-31T13:30:01.383Z,240
2022-10-31T13:31:01.783Z,236
2022-10-31T13:32:04.279Z,236
2022-10-31T13:33:02.370Z,236
2022-10-31T13:34:05.622Z,236
2022-10-31T13:35:01.809Z,232
2022-10-31T13:36:01.656Z,228
2022-10-31T13:37:01.598Z,232
2022-10-31T13:38:02.004Z,236
2022-10-31T13:39:01.336Z,244
2022-10-31T13:40:04.521Z,252
2022-10-31T13:41:01.383Z,244
2022-10-31T13:42:01.430Z,244
2022-10-31T13:43:02.344Z,244
2022-10-31T13:44:01.563Z,248
2022-10-31T13:45:04.262Z,256
2022-10-31T13:46:01.409Z,264
2022-10-31T13:47:01.410Z,280
2022-10-31T13:48:02.451Z,296
2022-10-31T13:49:01.659Z,304
2022-10-31T13:50:01.428Z,288
2022-10-31T13:51:01.530Z,288
2022-10-31T13:52:01.454Z,276
2022-10-31T13:53:01.429Z,280
2022-10-31T13:54:01.467Z,280
2022-10-31T13:55:01.514Z,296
2022-10-31T13:56:04.204Z,300
2022-10-31T13:57:01.426Z,300
2022-10-31T13:58:02.222Z,292
2022-10-31T13:59:01.649Z,264
2022-10-31T14:00:01.500Z,252
2022-10-31T14:01:01.892Z,268
2022-10-31T14:02:02.306Z,260
2022-10-31T14:03:01.832Z,264
2022-10-31T14:04:28.834Z,256
2022-10-31T14:05:01.499Z,248
2022-10-31T14:06:01.477Z,248
2022-10-31T14:07:01.446Z,232
2022-10-31T14:08:02.494Z,236
2022-10-31T14:09:01.642Z,228
2022-10-31T14:10:01.512Z,224
2022-10-31T14:11:01.984Z,220
2022-10-31T14:12:01.447Z,216
2022-10-31T14:13:01.475Z,212
2022-10-31T14:14:01.463Z,208
2022-10-31T14:15:01.342Z,212
2022-10-31T14:16:01.460Z,204
2022-10-31T14:17:02.765Z,200
2022-10-31T14:18:02.360Z,192
2022-10-31T14:19:01.454Z,180
2022-10-31T14:20:01.540Z,176
2022-10-31T14:21:01.482Z,172
2022-10-31T14:22:01.620Z,168